sensor_id;sensor_type;location;lat;lon;timestamp;pressure;altitude;pressure_sealevel;temperature;humidity
26487;BME280;14425;56.136;40.360;2023-05-11T00:01:45;100153.84;;;14.26;41.89
26487;BME280;14425;56.136;40.360;2023-05-11T00:04:11;100141.91;;;14.31;41.76
26487;BME280;14425;56.136;40.360;2023-05-11T00:06:37;100151.16;;;14.23;42.24
26487;BME280;14425;56.136;40.360;2023-05-11T00:09:02;100151.75;;;14.13;42.28
26487;BME280;14425;56.136;40.360;2023-05-11T00:11:28;100152.94;;;13.95;42.78
26487;BME280;14425;56.136;40.360;2023-05-11T00:13:53;100152.81;;;13.91;42.81
26487;BME280;14425;56.136;40.360;2023-05-11T00:16:19;100158.13;;;13.95;42.25
26487;BME280;14425;56.136;40.360;2023-05-11T00:18:45;100145.13;;;13.94;42.82
26487;BME280;14425;56.136;40.360;2023-05-11T00:21:10;100147.22;;;13.77;43.67
26487;BME280;14425;56.136;40.360;2023-05-11T00:23:36;100154.53;;;13.90;43.08
26487;BME280;14425;56.136;40.360;2023-05-11T00:26:01;100148.09;;;13.77;43.99
26487;BME280;14425;56.136;40.360;2023-05-11T00:28:27;100148.94;;;13.78;44.02
26487;BME280;14425;56.136;40.360;2023-05-11T00:30:56;100153.66;;;13.90;43.20
26487;BME280;14425;56.136;40.360;2023-05-11T00:33:22;100155.09;;;13.80;43.56
26487;BME280;14425;56.136;40.360;2023-05-11T00:35:48;100155.00;;;13.77;43.35
26487;BME280;14425;56.136;40.360;2023-05-11T00:38:14;100149.66;;;13.72;43.57
26487;BME280;14425;56.136;40.360;2023-05-11T00:40:40;100153.97;;;13.72;44.20
26487;BME280;14425;56.136;40.360;2023-05-11T00:43:05;100154.44;;;13.87;43.45
26487;BME280;14425;56.136;40.360;2023-05-11T00:45:31;100150.72;;;13.79;44.08
26487;BME280;14425;56.136;40.360;2023-05-11T00:47:57;100149.06;;;13.81;43.87
26487;BME280;14425;56.136;40.360;2023-05-11T00:50:24;100152.19;;;13.71;44.45
26487;BME280;14425;56.136;40.360;2023-05-11T00:52:49;100158.97;;;13.65;45.36
26487;BME280;14425;56.136;40.360;2023-05-11T00:55:18;100157.78;;;13.83;44.37
26487;BME280;14425;56.136;40.360;2023-05-11T00:57:44;100152.84;;;13.63;46.21
26487;BME280;14425;56.136;40.360;2023-05-11T01:00:10;100158.31;;;13.73;44.78
26487;BME280;14425;56.136;40.360;2023-05-11T01:02:37;100154.25;;;13.81;44.96
26487;BME280;14425;56.136;40.360;2023-05-11T01:05:03;100152.84;;;13.63;46.15
26487;BME280;14425;56.136;40.360;2023-05-11T01:13:15;100152.81;;;13.62;45.14
26487;BME280;14425;56.136;40.360;2023-05-11T01:15:51;100149.47;;;13.66;44.44
26487;BME280;14425;56.136;40.360;2023-05-11T01:18:24;100157.28;;;13.67;43.57
26487;BME280;14425;56.136;40.360;2023-05-11T01:20:55;100150.97;;;13.59;44.65
26487;BME280;14425;56.136;40.360;2023-05-11T01:32:25;100153.28;;;13.77;42.41
26487;BME280;14425;56.136;40.360;2023-05-11T01:34:59;100158.03;;;13.92;41.45
26487;BME280;14425;56.136;40.360;2023-05-11T01:37:30;100148.78;;;14.00;41.41
26487;BME280;14425;56.136;40.360;2023-05-11T01:39:58;100154.28;;;13.82;41.72
26487;BME280;14425;56.136;40.360;2023-05-11T01:42:37;100158.09;;;13.65;43.81
26487;BME280;14425;56.136;40.360;2023-05-11T01:45:06;100150.25;;;13.63;43.94
26487;BME280;14425;56.136;40.360;2023-05-11T01:47:33;100145.63;;;13.53;43.95
26487;BME280;14425;56.136;40.360;2023-05-11T01:50:00;100153.88;;;13.41;44.47
26487;BME280;14425;56.136;40.360;2023-05-11T01:52:30;100152.38;;;13.48;43.67
26487;BME280;14425;56.136;40.360;2023-05-11T01:54:56;100148.41;;;13.59;43.52
26487;BME280;14425;56.136;40.360;2023-05-11T01:57:24;100156.50;;;13.70;42.77
26487;BME280;14425;56.136;40.360;2023-05-11T01:59:51;100165.81;;;13.63;43.00
26487;BME280;14425;56.136;40.360;2023-05-11T02:02:17;100155.03;;;13.78;42.49
26487;BME280;14425;56.136;40.360;2023-05-11T02:04:44;100156.31;;;13.64;43.19
26487;BME280;14425;56.136;40.360;2023-05-11T02:07:11;100158.84;;;13.62;43.95
26487;BME280;14425;56.136;40.360;2023-05-11T02:09:39;100153.63;;;13.61;44.26
26487;BME280;14425;56.136;40.360;2023-05-11T02:12:05;100159.00;;;13.67;43.93
26487;BME280;14425;56.136;40.360;2023-05-11T02:14:34;100164.16;;;13.65;44.05
26487;BME280;14425;56.136;40.360;2023-05-11T02:17:02;100158.31;;;13.18;44.83
26487;BME280;14425;56.136;40.360;2023-05-11T02:19:28;100157.50;;;13.21;44.57
26487;BME280;14425;56.136;40.360;2023-05-11T02:21:54;100160.38;;;13.56;43.69
26487;BME280;14425;56.136;40.360;2023-05-11T02:24:22;100159.31;;;13.76;42.64
26487;BME280;14425;56.136;40.360;2023-05-11T02:26:49;100158.91;;;13.91;42.06
26487;BME280;14425;56.136;40.360;2023-05-11T02:29:14;100157.69;;;13.80;42.79
26487;BME280;14425;56.136;40.360;2023-05-11T02:31:43;100156.19;;;13.88;42.23
26487;BME280;14425;56.136;40.360;2023-05-11T02:34:20;100154.47;;;13.89;42.87
26487;BME280;14425;56.136;40.360;2023-05-11T02:36:48;100169.03;;;13.83;43.05
26487;BME280;14425;56.136;40.360;2023-05-11T02:39:18;100171.22;;;12.92;46.43
26487;BME280;14425;56.136;40.360;2023-05-11T02:41:50;100173.91;;;11.99;49.22
26487;BME280;14425;56.136;40.360;2023-05-11T02:44:20;100183.91;;;11.69;50.31
26487;BME280;14425;56.136;40.360;2023-05-11T02:46:47;100181.44;;;11.93;49.60
26487;BME280;14425;56.136;40.360;2023-05-11T02:49:17;100174.75;;;11.77;50.98
26487;BME280;14425;56.136;40.360;2023-05-11T02:51:45;100171.34;;;12.23;48.31
26487;BME280;14425;56.136;40.360;2023-05-11T02:54:13;100173.50;;;13.09;45.88
26487;BME280;14425;56.136;40.360;2023-05-11T02:56:40;100173.53;;;13.62;44.95
26487;BME280;14425;56.136;40.360;2023-05-11T02:59:05;100172.72;;;13.64;45.50
26487;BME280;14425;56.136;40.360;2023-05-11T03:01:32;100175.81;;;13.80;44.82
26487;BME280;14425;56.136;40.360;2023-05-11T03:03:58;100167.19;;;13.81;46.03
26487;BME280;14425;56.136;40.360;2023-05-11T03:06:24;100168.97;;;13.82;44.92
26487;BME280;14425;56.136;40.360;2023-05-11T03:08:50;100173.59;;;13.92;45.44
26487;BME280;14425;56.136;40.360;2023-05-11T03:11:16;100175.16;;;13.87;46.07
26487;BME280;14425;56.136;40.360;2023-05-11T03:13:43;100174.19;;;13.83;46.02
26487;BME280;14425;56.136;40.360;2023-05-11T03:16:10;100175.88;;;12.77;49.13
26487;BME280;14425;56.136;40.360;2023-05-11T03:18:36;100181.19;;;12.56;49.73
26487;BME280;14425;56.136;40.360;2023-05-11T03:21:04;100182.63;;;12.72;49.19
26487;BME280;14425;56.136;40.360;2023-05-11T03:23:31;100173.50;;;13.35;47.33
26487;BME280;14425;56.136;40.360;2023-05-11T03:25:58;100184.88;;;13.65;46.68
26487;BME280;14425;56.136;40.360;2023-05-11T03:28:25;100181.06;;;13.54;46.50
26487;BME280;14425;56.136;40.360;2023-05-11T03:30:52;100180.25;;;13.84;45.39
26487;BME280;14425;56.136;40.360;2023-05-11T03:33:18;100180.72;;;13.99;44.25
26487;BME280;14425;56.136;40.360;2023-05-11T03:35:46;100179.75;;;14.25;44.47
26487;BME280;14425;56.136;40.360;2023-05-11T03:38:14;100178.06;;;14.27;45.21
26487;BME280;14425;56.136;40.360;2023-05-11T03:40:41;100182.88;;;14.43;44.20
26487;BME280;14425;56.136;40.360;2023-05-11T03:43:10;100182.28;;;14.53;44.07
26487;BME280;14425;56.136;40.360;2023-05-11T03:45:36;100187.00;;;14.67;43.69
26487;BME280;14425;56.136;40.360;2023-05-11T03:48:04;100187.97;;;14.70;44.07
26487;BME280;14425;56.136;40.360;2023-05-11T03:50:30;100183.47;;;14.63;44.83
26487;BME280;14425;56.136;40.360;2023-05-11T03:52:57;100191.38;;;14.68;46.29
26487;BME280;14425;56.136;40.360;2023-05-11T03:55:23;100188.16;;;14.46;47.34
26487;BME280;14425;56.136;40.360;2023-05-11T03:57:49;100188.34;;;14.54;46.41
26487;BME280;14425;56.136;40.360;2023-05-11T04:00:15;100185.47;;;14.73;45.87
26487;BME280;14425;56.136;40.360;2023-05-11T04:02:41;100183.44;;;14.95;45.66
26487;BME280;14425;56.136;40.360;2023-05-11T04:05:08;100183.34;;;14.92;46.06
26487;BME280;14425;56.136;40.360;2023-05-11T04:07:35;100179.88;;;15.25;44.64
26487;BME280;14425;56.136;40.360;2023-05-11T04:10:02;100171.75;;;15.47;44.09
26487;BME280;14425;56.136;40.360;2023-05-11T04:12:29;100175.00;;;15.39;43.66
26487;BME280;14425;56.136;40.360;2023-05-11T04:14:55;100176.13;;;15.50;43.16
26487;BME280;14425;56.136;40.360;2023-05-11T04:17:20;100184.31;;;15.30;44.46
26487;BME280;14425;56.136;40.360;2023-05-11T04:19:46;100194.41;;;14.53;47.37
26487;BME280;14425;56.136;40.360;2023-05-11T04:22:11;100208.72;;;13.82;51.69
26487;BME280;14425;56.136;40.360;2023-05-11T04:24:37;100207.47;;;13.70;52.66
26487;BME280;14425;56.136;40.360;2023-05-11T04:27:03;100208.09;;;13.90;49.80
26487;BME280;14425;56.136;40.360;2023-05-11T04:29:29;100202.44;;;14.32;48.73
26487;BME280;14425;56.136;40.360;2023-05-11T04:31:54;100199.94;;;14.65;47.42
26487;BME280;14425;56.136;40.360;2023-05-11T04:34:20;100196.44;;;14.63;49.02
26487;BME280;14425;56.136;40.360;2023-05-11T04:36:47;100192.41;;;14.74;48.11
26487;BME280;14425;56.136;40.360;2023-05-11T04:39:13;100186.19;;;15.01;46.57
26487;BME280;14425;56.136;40.360;2023-05-11T04:41:38;100184.53;;;15.38;43.91
26487;BME280;14425;56.136;40.360;2023-05-11T04:44:04;100185.03;;;15.60;43.15
26487;BME280;14425;56.136;40.360;2023-05-11T04:46:29;100179.47;;;15.44;45.03
26487;BME280;14425;56.136;40.360;2023-05-11T04:48:55;100191.13;;;15.25;44.32
26487;BME280;14425;56.136;40.360;2023-05-11T04:51:20;100179.28;;;15.37;43.45
26487;BME280;14425;56.136;40.360;2023-05-11T04:53:46;100176.28;;;15.20;43.65
26487;BME280;14425;56.136;40.360;2023-05-11T04:56:11;100174.16;;;15.05;44.13
26487;BME280;14425;56.136;40.360;2023-05-11T04:58:37;100184.75;;;15.12;43.68
26487;BME280;14425;56.136;40.360;2023-05-11T05:01:03;100180.31;;;15.08;43.87
26487;BME280;14425;56.136;40.360;2023-05-11T05:03:28;100179.41;;;15.41;42.55
26487;BME280;14425;56.136;40.360;2023-05-11T05:05:54;100184.06;;;15.55;42.95
26487;BME280;14425;56.136;40.360;2023-05-11T05:08:19;100179.38;;;15.40;43.81
26487;BME280;14425;56.136;40.360;2023-05-11T05:10:46;100180.09;;;15.34;44.15
26487;BME280;14425;56.136;40.360;2023-05-11T05:13:12;100174.97;;;15.37;43.59
26487;BME280;14425;56.136;40.360;2023-05-11T05:15:37;100178.50;;;15.39;43.43
26487;BME280;14425;56.136;40.360;2023-05-11T05:18:03;100176.59;;;15.33;43.71
26487;BME280;14425;56.136;40.360;2023-05-11T05:20:28;100179.56;;;15.47;42.71
26487;BME280;14425;56.136;40.360;2023-05-11T05:22:54;100180.19;;;15.39;42.72
26487;BME280;14425;56.136;40.360;2023-05-11T05:25:20;100176.97;;;15.84;42.92
26487;BME280;14425;56.136;40.360;2023-05-11T05:27:46;100177.13;;;15.92;43.42
26487;BME280;14425;56.136;40.360;2023-05-11T05:30:12;100178.75;;;15.86;41.95
26487;BME280;14425;56.136;40.360;2023-05-11T05:32:37;100178.63;;;15.82;42.40
26487;BME280;14425;56.136;40.360;2023-05-11T05:35:03;100171.72;;;15.82;41.48
26487;BME280;14425;56.136;40.360;2023-05-11T05:37:30;100178.44;;;15.74;43.44
26487;BME280;14425;56.136;40.360;2023-05-11T05:39:56;100171.66;;;15.79;42.60
26487;BME280;14425;56.136;40.360;2023-05-11T05:42:22;100168.00;;;16.11;41.36
26487;BME280;14425;56.136;40.360;2023-05-11T05:44:47;100163.72;;;16.55;41.02
26487;BME280;14425;56.136;40.360;2023-05-11T05:47:13;100164.00;;;16.71;40.16
26487;BME280;14425;56.136;40.360;2023-05-11T05:49:39;100164.94;;;16.76;39.87
26487;BME280;14425;56.136;40.360;2023-05-11T05:52:05;100166.25;;;16.52;40.77
26487;BME280;14425;56.136;40.360;2023-05-11T05:54:30;100161.88;;;16.51;42.34
26487;BME280;14425;56.136;40.360;2023-05-11T05:56:56;100172.13;;;16.42;42.83
26487;BME280;14425;56.136;40.360;2023-05-11T05:59:21;100167.81;;;16.44;43.26
26487;BME280;14425;56.136;40.360;2023-05-11T06:01:49;100169.31;;;16.77;41.91
26487;BME280;14425;56.136;40.360;2023-05-11T06:04:15;100160.31;;;17.05;41.54
26487;BME280;14425;56.136;40.360;2023-05-11T06:06:41;100170.88;;;17.14;40.76
26487;BME280;14425;56.136;40.360;2023-05-11T06:09:06;100169.25;;;17.21;40.26
26487;BME280;14425;56.136;40.360;2023-05-11T06:11:32;100167.53;;;17.23;41.24
26487;BME280;14425;56.136;40.360;2023-05-11T06:13:57;100167.28;;;17.08;39.64
26487;BME280;14425;56.136;40.360;2023-05-11T06:16:23;100171.72;;;17.12;41.14
26487;BME280;14425;56.136;40.360;2023-05-11T06:18:52;100184.75;;;17.67;43.22
26487;BME280;14425;56.136;40.360;2023-05-11T06:21:18;100176.44;;;17.92;41.35
26487;BME280;14425;56.136;40.360;2023-05-11T06:23:43;100176.44;;;17.92;42.66
26487;BME280;14425;56.136;40.360;2023-05-11T06:26:09;100176.25;;;18.44;40.74
26487;BME280;14425;56.136;40.360;2023-05-11T06:28:36;100177.25;;;18.56;39.78
26487;BME280;14425;56.136;40.360;2023-05-11T06:31:01;100173.88;;;18.68;37.69
26487;BME280;14425;56.136;40.360;2023-05-11T06:33:28;100171.28;;;18.66;38.09
26487;BME280;14425;56.136;40.360;2023-05-11T06:35:54;100169.81;;;18.90;37.94
26487;BME280;14425;56.136;40.360;2023-05-11T06:38:20;100177.59;;;18.85;37.42
26487;BME280;14425;56.136;40.360;2023-05-11T06:40:45;100175.09;;;18.99;36.89
26487;BME280;14425;56.136;40.360;2023-05-11T06:43:11;100171.81;;;19.18;36.24
26487;BME280;14425;56.136;40.360;2023-05-11T06:45:36;100173.78;;;19.44;35.73
26487;BME280;14425;56.136;40.360;2023-05-11T06:48:02;100168.53;;;19.44;35.11
26487;BME280;14425;56.136;40.360;2023-05-11T06:50:28;100174.66;;;19.46;34.17
26487;BME280;14425;56.136;40.360;2023-05-11T06:52:53;100164.81;;;19.14;35.49
26487;BME280;14425;56.136;40.360;2023-05-11T06:55:19;100175.06;;;18.93;35.17
26487;BME280;14425;56.136;40.360;2023-05-11T06:57:45;100175.31;;;19.20;34.73
26487;BME280;14425;56.136;40.360;2023-05-11T07:00:11;100170.97;;;19.21;33.92
26487;BME280;14425;56.136;40.360;2023-05-11T07:02:37;100172.63;;;19.11;33.87
26487;BME280;14425;56.136;40.360;2023-05-11T07:05:03;100176.09;;;19.10;33.18
26487;BME280;14425;56.136;40.360;2023-05-11T07:07:30;100176.09;;;19.10;33.77
26487;BME280;14425;56.136;40.360;2023-05-11T07:09:55;100171.94;;;19.31;32.77
26487;BME280;14425;56.136;40.360;2023-05-11T07:12:21;100170.06;;;19.20;32.25
26487;BME280;14425;56.136;40.360;2023-05-11T07:14:47;100170.91;;;19.13;33.72
26487;BME280;14425;56.136;40.360;2023-05-11T07:17:12;100168.22;;;19.09;33.64
26487;BME280;14425;56.136;40.360;2023-05-11T07:19:38;100175.13;;;19.02;33.32
26487;BME280;14425;56.136;40.360;2023-05-11T07:22:03;100168.19;;;19.01;33.80
26487;BME280;14425;56.136;40.360;2023-05-11T07:24:30;100166.59;;;19.22;34.21
26487;BME280;14425;56.136;40.360;2023-05-11T07:26:55;100175.22;;;19.10;33.88
26487;BME280;14425;56.136;40.360;2023-05-11T07:29:21;100185.06;;;18.53;34.25
26487;BME280;14425;56.136;40.360;2023-05-11T07:31:47;100174.31;;;18.28;34.50
26487;BME280;14425;56.136;40.360;2023-05-11T07:34:12;100176.41;;;18.57;33.46
26487;BME280;14425;56.136;40.360;2023-05-11T07:36:38;100184.28;;;18.61;34.26
26487;BME280;14425;56.136;40.360;2023-05-11T07:39:03;100176.16;;;19.16;34.12
26487;BME280;14425;56.136;40.360;2023-05-11T07:41:29;100172.88;;;19.45;32.54
26487;BME280;14425;56.136;40.360;2023-05-11T07:43:55;100177.03;;;19.18;32.89
26487;BME280;14425;56.136;40.360;2023-05-11T07:46:20;100172.03;;;19.45;32.95
26487;BME280;14425;56.136;40.360;2023-05-11T07:48:46;100170.69;;;20.01;32.23
26487;BME280;14425;56.136;40.360;2023-05-11T07:51:12;100173.34;;;20.11;32.75
26487;BME280;14425;56.136;40.360;2023-05-11T07:53:37;100173.31;;;20.04;30.89
26487;BME280;14425;56.136;40.360;2023-05-11T07:56:03;100167.50;;;20.91;30.70
26487;BME280;14425;56.136;40.360;2023-05-11T07:58:29;100158.78;;;21.14;29.88
26487;BME280;14425;56.136;40.360;2023-05-11T08:00:56;100169.28;;;21.34;31.10
26487;BME280;14425;56.136;40.360;2023-05-11T08:03:21;100152.66;;;21.39;31.50
26487;BME280;14425;56.136;40.360;2023-05-11T08:05:47;100163.16;;;21.63;30.53
26487;BME280;14425;56.136;40.360;2023-05-11T08:08:13;100156.84;;;22.27;30.35
26487;BME280;14425;56.136;40.360;2023-05-11T08:10:38;100151.63;;;22.21;29.39
26487;BME280;14425;56.136;40.360;2023-05-11T08:13:04;100148.13;;;22.15;28.94
26487;BME280;14425;56.136;40.360;2023-05-11T08:15:30;100156.09;;;21.99;29.96
26487;BME280;14425;56.136;40.360;2023-05-11T08:17:55;100151.81;;;21.54;29.88
26487;BME280;14425;56.136;40.360;2023-05-11T08:20:21;100149.22;;;21.48;30.62
26487;BME280;14425;56.136;40.360;2023-05-11T08:22:47;100150.91;;;20.89;31.33
26487;BME280;14425;56.136;40.360;2023-05-11T08:25:13;100147.41;;;21.16;31.20
26487;BME280;14425;56.136;40.360;2023-05-11T08:27:38;100150.06;;;21.30;30.81
26487;BME280;14425;56.136;40.360;2023-05-11T08:30:04;100147.44;;;21.53;31.51
26487;BME280;14425;56.136;40.360;2023-05-11T08:32:31;100147.41;;;21.15;31.51
26487;BME280;14425;56.136;40.360;2023-05-11T08:34:59;100142.19;;;21.22;31.21
26487;BME280;14425;56.136;40.360;2023-05-11T08:37:25;100138.69;;;21.57;30.10
26487;BME280;14425;56.136;40.360;2023-05-11T08:39:50;100127.03;;;22.40;30.11
26487;BME280;14425;56.136;40.360;2023-05-11T08:42:16;100132.44;;;22.00;29.64
26487;BME280;14425;56.136;40.360;2023-05-11T08:44:42;100136.88;;;21.84;30.53
26487;BME280;14425;56.136;40.360;2023-05-11T08:47:09;100132.41;;;22.06;28.79
26487;BME280;14425;56.136;40.360;2023-05-11T08:49:34;100125.34;;;22.28;30.08
26487;BME280;14425;56.136;40.360;2023-05-11T08:52:03;100135.38;;;23.07;28.29
26487;BME280;14425;56.136;40.360;2023-05-11T08:54:30;100124.88;;;23.07;27.29
26487;BME280;14425;56.136;40.360;2023-05-11T08:56:56;100124.13;;;22.86;29.32
26487;BME280;14425;56.136;40.360;2023-05-11T08:59:26;100122.16;;;23.16;28.33
26487;BME280;14425;56.136;40.360;2023-05-11T09:01:52;100120.78;;;23.67;27.91
26487;BME280;14425;56.136;40.360;2023-05-11T09:04:21;100114.97;;;24.17;27.60
26487;BME280;14425;56.136;40.360;2023-05-11T09:06:48;100113.09;;;24.27;27.61
26487;BME280;14425;56.136;40.360;2023-05-11T09:09:15;100111.25;;;24.93;26.76
26487;BME280;14425;56.136;40.360;2023-05-11T09:11:44;100107.69;;;24.37;27.18
26487;BME280;14425;56.136;40.360;2023-05-11T09:14:11;100103.91;;;22.95;29.02
26487;BME280;14425;56.136;40.360;2023-05-11T09:16:38;100111.63;;;23.21;29.73
26487;BME280;14425;56.136;40.360;2023-05-11T09:19:04;100108.00;;;23.33;28.47
26487;BME280;14425;56.136;40.360;2023-05-11T09:21:30;100102.19;;;23.80;27.01
26487;BME280;14425;56.136;40.360;2023-05-11T09:23:56;100105.03;;;23.64;27.43
26487;BME280;14425;56.136;40.360;2023-05-11T09:26:25;100097.06;;;22.72;27.97
26487;BME280;14425;56.136;40.360;2023-05-11T09:28:57;100097.47;;;21.86;29.17
26487;BME280;14425;56.136;40.360;2023-05-11T09:31:42;100089.91;;;22.90;28.74
26487;BME280;14425;56.136;40.360;2023-05-11T09:34:19;100087.47;;;22.68;28.31
26487;BME280;14425;56.136;40.360;2023-05-11T09:36:52;100080.88;;;24.04;27.74
26487;BME280;14425;56.136;40.360;2023-05-11T09:39:38;100088.94;;;23.01;27.70
26487;BME280;14425;56.136;40.360;2023-05-11T09:42:30;100074.28;;;24.95;26.44
26487;BME280;14425;56.136;40.360;2023-05-11T09:44:56;100086.13;;;23.24;25.50
26487;BME280;14425;56.136;40.360;2023-05-11T09:47:21;100081.47;;;22.44;27.22
26487;BME280;14425;56.136;40.360;2023-05-11T09:49:47;100077.00;;;23.59;26.52
26487;BME280;14425;56.136;40.360;2023-05-11T09:52:17;100079.28;;;23.90;26.31
26487;BME280;14425;56.136;40.360;2023-05-11T09:54:45;100076.28;;;23.45;26.32
26487;BME280;14425;56.136;40.360;2023-05-11T09:57:27;100063.66;;;25.01;27.24
26487;BME280;14425;56.136;40.360;2023-05-11T09:59:54;100065.47;;;24.38;26.07
26487;BME280;14425;56.136;40.360;2023-05-11T10:02:25;100066.06;;;23.95;25.94
26487;BME280;14425;56.136;40.360;2023-05-11T10:04:53;100066.50;;;23.58;27.00
26487;BME280;14425;56.136;40.360;2023-05-11T10:09:48;100053.72;;;23.98;26.85
26487;BME280;14425;56.136;40.360;2023-05-11T10:12:15;100066.16;;;24.56;27.08
26487;BME280;14425;56.136;40.360;2023-05-11T10:14:41;100054.41;;;24.14;27.55
26487;BME280;14425;56.136;40.360;2023-05-11T10:17:09;100058.03;;;23.27;26.96
26487;BME280;14425;56.136;40.360;2023-05-11T10:19:35;100056.00;;;24.26;27.92
26487;BME280;14425;56.136;40.360;2023-05-11T10:22:01;100059.03;;;25.14;25.47
26487;BME280;14425;56.136;40.360;2023-05-11T10:24:28;100054.06;;;25.45;24.94
26487;BME280;14425;56.136;40.360;2023-05-11T10:26:55;100039.88;;;25.96;24.86
26487;BME280;14425;56.136;40.360;2023-05-11T10:29:22;100033.72;;;26.72;24.17
26487;BME280;14425;56.136;40.360;2023-05-11T10:31:48;100044.34;;;25.49;25.34
26487;BME280;14425;56.136;40.360;2023-05-11T10:34:16;100037.25;;;24.45;26.44
26487;BME280;14425;56.136;40.360;2023-05-11T10:36:44;100034.34;;;24.65;26.04
26487;BME280;14425;56.136;40.360;2023-05-11T10:39:10;100032.91;;;24.98;24.88
26487;BME280;14425;56.136;40.360;2023-05-11T10:44:38;100026.16;;;25.32;24.30
26487;BME280;14425;56.136;40.360;2023-05-11T10:49:57;100019.41;;;23.32;25.67
26487;BME280;14425;56.136;40.360;2023-05-11T10:55:44;100016.28;;;21.13;26.53
26487;BME280;14425;56.136;40.360;2023-05-11T10:58:21;100015.41;;;20.40;27.33
26487;BME280;14425;56.136;40.360;2023-05-11T11:04:03;100004.63;;;23.20;25.75
26487;BME280;14425;56.136;40.360;2023-05-11T11:06:31;100006.84;;;23.55;26.21
26487;BME280;14425;56.136;40.360;2023-05-11T11:11:29;100003.84;;;23.10;27.06
26487;BME280;14425;56.136;40.360;2023-05-11T11:13:56;100001.88;;;22.28;26.00
26487;BME280;14425;56.136;40.360;2023-05-11T11:16:22;100006.81;;;22.70;26.70
26487;BME280;14425;56.136;40.360;2023-05-11T11:18:50;99999.25;;;23.29;26.23
26487;BME280;14425;56.136;40.360;2023-05-11T11:21:39;100001.50;;;24.28;24.94
26487;BME280;14425;56.136;40.360;2023-05-11T11:24:05;100007.03;;;22.39;26.83
26487;BME280;14425;56.136;40.360;2023-05-11T11:26:48;100005.69;;;21.67;27.45
26487;BME280;14425;56.136;40.360;2023-05-11T11:29:15;99993.53;;;20.12;30.13
26487;BME280;14425;56.136;40.360;2023-05-11T11:31:41;100014.56;;;20.60;29.93
26487;BME280;14425;56.136;40.360;2023-05-11T11:39:21;99998.78;;;21.28;29.90
26487;BME280;14425;56.136;40.360;2023-05-11T11:42:06;100002.09;;;21.91;28.37
26487;BME280;14425;56.136;40.360;2023-05-11T11:44:33;100013.63;;;21.39;28.33
26487;BME280;14425;56.136;40.360;2023-05-11T11:47:18;100000.63;;;20.81;29.49
26487;BME280;14425;56.136;40.360;2023-05-11T11:49:49;100006.69;;;20.43;30.39
26487;BME280;14425;56.136;40.360;2023-05-11T11:55:02;100045.59;;;19.39;32.77
26487;BME280;14425;56.136;40.360;2023-05-11T12:00:07;100069.81;;;17.54;38.08
26487;BME280;14425;56.136;40.360;2023-05-11T12:02:43;100076.63;;;17.43;38.84
26487;BME280;14425;56.136;40.360;2023-05-11T12:05:14;100070.75;;;16.98;39.75
26487;BME280;14425;56.136;40.360;2023-05-11T12:07:45;100081.72;;;16.35;41.56
26487;BME280;14425;56.136;40.360;2023-05-11T12:10:16;100079.13;;;15.89;42.78
26487;BME280;14425;56.136;40.360;2023-05-11T12:12:51;100080.19;;;15.59;43.84
26487;BME280;14425;56.136;40.360;2023-05-11T12:15:23;100079.84;;;15.45;45.48
26487;BME280;14425;56.136;40.360;2023-05-11T12:17:49;100079.59;;;16.12;45.16
26487;BME280;14425;56.136;40.360;2023-05-11T12:20:17;100090.50;;;16.40;44.61
26487;BME280;14425;56.136;40.360;2023-05-11T12:22:46;100080.28;;;15.65;46.87
26487;BME280;14425;56.136;40.360;2023-05-11T12:25:17;100073.50;;;14.94;50.73
26487;BME280;14425;56.136;40.360;2023-05-11T12:27:52;100090.44;;;16.84;46.36
26487;BME280;14425;56.136;40.360;2023-05-11T12:30:30;100081.44;;;17.77;41.98
26487;BME280;14425;56.136;40.360;2023-05-11T12:32:56;100099.06;;;17.32;43.11
26487;BME280;14425;56.136;40.360;2023-05-11T12:35:32;100079.91;;;16.78;42.07
26487;BME280;14425;56.136;40.360;2023-05-11T12:38:00;100092.47;;;17.01;41.96
26487;BME280;14425;56.136;40.360;2023-05-11T12:40:29;100088.81;;;15.98;45.08
26487;BME280;14425;56.136;40.360;2023-05-11T12:42:58;100086.53;;;16.13;43.93
26487;BME280;14425;56.136;40.360;2023-05-11T12:45:25;100085.97;;;15.87;45.23
26487;BME280;14425;56.136;40.360;2023-05-11T12:47:54;100087.81;;;16.83;43.33
26487;BME280;14425;56.136;40.360;2023-05-11T12:50:20;100079.56;;;17.69;41.36
26487;BME280;14425;56.136;40.360;2023-05-11T12:52:47;100080.56;;;17.18;42.99
26487;BME280;14425;56.136;40.360;2023-05-11T12:55:13;100077.81;;;17.07;43.12
26487;BME280;14425;56.136;40.360;2023-05-11T12:57:41;100083.09;;;17.10;43.37
26487;BME280;14425;56.136;40.360;2023-05-11T13:02:51;100089.75;;;17.51;43.10
26487;BME280;14425;56.136;40.360;2023-05-11T13:05:17;100082.06;;;18.27;41.30
26487;BME280;14425;56.136;40.360;2023-05-11T13:07:44;100072.47;;;18.25;40.64
26487;BME280;14425;56.136;40.360;2023-05-11T13:10:11;100078.56;;;17.60;41.68
26487;BME280;14425;56.136;40.360;2023-05-11T13:12:50;100075.53;;;17.27;42.41
26487;BME280;14425;56.136;40.360;2023-05-11T13:15:16;100074.31;;;17.63;41.28
26487;BME280;14425;56.136;40.360;2023-05-11T13:17:42;100075.84;;;16.45;43.30
26487;BME280;14425;56.136;40.360;2023-05-11T13:22:43;100069.00;;;17.57;40.27
26487;BME280;14425;56.136;40.360;2023-05-11T13:25:09;100063.88;;;17.63;40.98
26487;BME280;14425;56.136;40.360;2023-05-11T13:27:35;100078.19;;;16.78;41.85
26487;BME280;14425;56.136;40.360;2023-05-11T13:30:04;100058.88;;;17.82;41.04